createdAt,value
2018-09-22T00:00:26.117Z,0.00
2018-09-22T00:01:26.083Z,0.00
2018-09-22T00:02:25.946Z,0.00
2018-09-22T00:03:25.929Z,0.00
2018-09-22T00:04:25.784Z,0.00
2018-09-22T00:05:25.802Z,0.00
2018-09-22T00:06:25.629Z,0.00
2018-09-22T00:07:25.616Z,0.00
2018-09-22T00:08:25.480Z,0.00
2018-09-22T00:09:25.420Z,0.00
2018-09-22T00:10:25.300Z,0.00
2018-09-22T00:11:25.328Z,0.00
2018-09-22T00:12:25.137Z,0.00
2018-09-22T00:13:25.182Z,0.00
2018-09-22T00:14:24.992Z,0.00
2018-09-22T00:15:24.948Z,0.00
2018-09-22T00:16:24.825Z,0.00
2018-09-22T00:17:24.869Z,0.00
2018-09-22T00:18:24.654Z,0.00
2018-09-22T00:19:24.703Z,0.00
2018-09-22T00:20:24.493Z,0.00
2018-09-22T00:21:24.485Z,0.00
2018-09-22T00:22:24.342Z,0.00
2018-09-22T00:23:24.390Z,0.00
2018-09-22T00:24:24.206Z,0.00
2018-09-22T00:25:24.198Z,0.00
2018-09-22T00:26:24.016Z,0.00
2018-09-22T00:27:24.071Z,0.00
2018-09-22T00:28:23.853Z,0.00
2018-09-22T00:29:23.843Z,0.00
2018-09-22T00:30:23.692Z,0.00
2018-09-22T00:31:23.740Z,0.00
2018-09-22T00:32:23.528Z,0.00
2018-09-22T00:33:23.542Z,0.00
2018-09-22T00:34:23.389Z,0.00
2018-09-22T00:35:23.339Z,0.00
2018-09-22T00:36:23.219Z,0.00
2018-09-22T00:37:23.251Z,0.00
2018-09-22T00:38:23.045Z,0.00
2018-09-22T00:39:23.103Z,0.00
2018-09-22T00:40:22.885Z,0.00
2018-09-22T00:41:22.882Z,0.00
2018-09-22T00:42:22.720Z,0.00
2018-09-22T00:43:22.674Z,0.00
2018-09-22T00:44:22.576Z,0.00
2018-09-22T00:45:22.592Z,0.00
2018-09-22T00:46:22.420Z,0.00
2018-09-22T00:47:22.338Z,0.00
2018-09-22T00:48:22.243Z,0.00
2018-09-22T00:49:22.211Z,0.00
2018-09-22T00:50:22.092Z,0.00
2018-09-22T00:51:22.112Z,0.00
2018-09-22T00:52:21.922Z,0.00
2018-09-22T00:53:21.927Z,0.00
2018-09-22T00:54:21.751Z,0.00
2018-09-22T00:55:21.767Z,0.00
2018-09-22T00:56:21.609Z,0.00
2018-09-22T00:57:21.644Z,0.00
2018-09-22T00:58:21.435Z,0.00
2018-09-22T00:59:21.464Z,0.00
2018-09-22T01:00:21.343Z,0.00
2018-09-22T01:03:03.468Z,0.00
2018-09-22T01:04:03.466Z,0.00
2018-09-22T01:05:03.306Z,0.00
2018-09-22T01:06:03.306Z,0.00
2018-09-22T01:07:03.179Z,0.00
2018-09-22T01:08:03.175Z,0.00
2018-09-22T01:09:02.985Z,0.00
2018-09-22T01:10:02.987Z,0.00
2018-09-22T01:11:02.821Z,0.00
2018-09-22T01:12:02.833Z,0.00
2018-09-22T01:13:02.664Z,0.00
2018-09-22T01:14:02.730Z,0.00
2018-09-22T01:15:02.507Z,0.00
2018-09-22T01:16:02.584Z,0.00
2018-09-22T01:17:02.359Z,0.00
2018-09-22T01:18:02.333Z,0.00
2018-09-22T01:19:02.197Z,0.00
2018-09-22T01:20:02.141Z,0.00
2018-09-22T01:21:02.016Z,0.00
2018-09-22T01:22:03.005Z,0.00
2018-09-22T01:23:01.854Z,0.00
2018-09-22T01:24:01.854Z,0.00
2018-09-22T01:25:01.695Z,0.00
2018-09-22T01:26:01.667Z,0.00
2018-09-22T01:27:01.552Z,0.00
2018-09-22T01:29:43.484Z,0.00
2018-09-22T01:30:43.493Z,0.00
2018-09-22T01:31:43.330Z,0.00
2018-09-22T01:32:43.286Z,0.00
2018-09-22T01:33:43.384Z,0.00
2018-09-22T01:34:43.195Z,0.00
2018-09-22T01:35:42.998Z,0.00
2018-09-22T01:36:43.030Z,0.00
2018-09-22T01:37:42.848Z,0.00
2018-09-22T01:38:42.806Z,0.00
2018-09-22T01:39:42.701Z,0.00
2018-09-22T01:40:42.709Z,0.00
2018-09-22T01:41:42.508Z,0.00
2018-09-22T01:42:42.565Z,0.00
2018-09-22T01:43:42.344Z,0.00
2018-09-22T01:44:42.333Z,0.00
2018-09-22T01:45:42.180Z,0.00
2018-09-22T01:46:42.145Z,0.00
2018-09-22T01:47:42.050Z,0.00
2018-09-22T01:48:42.051Z,0.00
2018-09-22T01:49:41.856Z,0.00
2018-09-22T01:50:41.863Z,0.00
2018-09-22T01:51:41.723Z,0.00
2018-09-22T01:54:23.998Z,0.00
2018-09-22T01:55:23.975Z,0.00
2018-09-22T01:56:23.819Z,0.00
2018-09-22T02:00:06.996Z,0.00
2018-09-22T02:02:49.008Z,0.00
2018-09-22T02:03:53.036Z,0.00
2018-09-22T02:04:48.824Z,0.00
2018-09-22T02:05:51.564Z,0.00
2018-09-22T02:06:48.677Z,0.00
2018-09-22T02:07:48.661Z,0.00
2018-09-22T02:08:48.504Z,0.00
2018-09-22T02:09:48.541Z,0.00
2018-09-22T02:10:48.344Z,0.00
2018-09-22T02:11:48.355Z,0.00
2018-09-22T02:12:48.211Z,0.00
2018-09-22T02:13:48.220Z,0.00
2018-09-22T02:14:48.028Z,0.00
2018-09-22T02:15:48.013Z,0.00
2018-09-22T02:16:47.863Z,0.00
2018-09-22T02:17:47.877Z,0.00
2018-09-22T02:18:47.707Z,0.00
2018-09-22T02:19:47.687Z,0.00
2018-09-22T02:20:47.532Z,0.00
2018-09-22T02:21:47.492Z,0.00
2018-09-22T02:22:47.363Z,0.00
2018-09-22T02:23:47.331Z,0.00
2018-09-22T02:24:47.209Z,0.00
2018-09-22T02:25:47.215Z,0.00
2018-09-22T02:26:47.046Z,0.00
2018-09-22T02:27:47.030Z,0.00
2018-09-22T02:28:46.901Z,0.00
2018-09-22T02:29:46.835Z,0.00
2018-09-22T02:30:46.731Z,0.00
2018-09-22T02:31:46.741Z,0.00
2018-09-22T02:32:46.561Z,0.00
2018-09-22T02:33:46.577Z,0.00
2018-09-22T02:34:46.425Z,0.00
2018-09-22T02:35:46.361Z,0.00
2018-09-22T02:36:46.232Z,0.00
2018-09-22T02:37:46.271Z,0.00
2018-09-22T02:38:46.077Z,0.00
2018-09-22T02:39:46.115Z,0.00
2018-09-22T02:40:45.924Z,0.00
2018-09-22T02:41:45.911Z,0.00
2018-09-22T02:42:45.751Z,0.00
2018-09-22T02:43:45.803Z,0.00
2018-09-22T02:44:45.604Z,0.00
2018-09-22T02:45:45.603Z,0.00
2018-09-22T02:46:45.429Z,0.00
2018-09-22T02:47:45.415Z,0.00
2018-09-22T02:48:45.266Z,0.00
2018-09-22T02:49:45.276Z,0.00
2018-09-22T02:50:45.193Z,0.00
2018-09-22T02:53:27.010Z,0.00
2018-09-22T02:54:27.033Z,0.00
2018-09-22T02:55:26.855Z,0.00
2018-09-22T02:56:26.855Z,0.00
2018-09-22T02:57:26.670Z,0.00
2018-09-22T02:58:26.594Z,0.00
2018-09-22T02:59:26.509Z,0.00
2018-09-22T03:00:26.501Z,0.00
2018-09-22T03:01:26.358Z,0.00
2018-09-22T03:02:26.390Z,0.00
2018-09-22T03:03:26.187Z,0.00
2018-09-22T03:04:26.205Z,0.00
2018-09-22T03:05:26.040Z,0.00
2018-09-22T03:06:25.985Z,0.00
2018-09-22T03:07:25.882Z,0.00
2018-09-22T03:08:25.894Z,0.00
2018-09-22T03:09:25.700Z,0.00
2018-09-22T03:10:26.781Z,0.00
2018-09-22T03:11:25.548Z,0.00
2018-09-22T03:12:25.604Z,0.00
2018-09-22T03:21:49.158Z,0.00
2018-09-22T03:22:49.019Z,0.00
2018-09-22T03:23:49.032Z,0.00
2018-09-22T03:24:48.849Z,0.00
2018-09-22T03:25:48.867Z,0.00
2018-09-22T03:26:48.692Z,0.00
2018-09-22T03:27:48.647Z,0.00
2018-09-22T03:28:48.529Z,0.00
2018-09-22T03:29:48.564Z,0.00
2018-09-22T03:30:48.389Z,0.00
2018-09-22T03:31:48.372Z,0.00
2018-09-22T03:32:48.202Z,0.00
2018-09-22T03:33:48.181Z,0.00
2018-09-22T03:34:48.058Z,0.00
2018-09-22T03:35:48.034Z,0.00
2018-09-22T03:36:47.914Z,0.00
2018-09-22T03:37:47.898Z,0.00
2018-09-22T03:38:47.718Z,0.00
2018-09-22T03:39:47.713Z,0.00
2018-09-22T03:40:47.555Z,0.00
2018-09-22T03:41:47.543Z,0.00
2018-09-22T03:42:47.399Z,0.00
2018-09-22T03:43:47.427Z,0.00
2018-09-22T03:44:47.249Z,0.00
2018-09-22T03:45:47.241Z,0.00
2018-09-22T03:46:47.107Z,0.00
2018-09-22T03:47:47.043Z,0.00
2018-09-22T03:48:46.909Z,0.00
2018-09-22T03:49:46.968Z,0.00
2018-09-22T03:50:46.752Z,0.00
2018-09-22T03:51:46.760Z,0.00
2018-09-22T03:52:46.614Z,0.00
2018-09-22T03:53:46.577Z,0.00
2018-09-22T03:54:46.429Z,0.00
2018-09-22T03:57:28.638Z,0.00
2018-09-22T03:58:28.486Z,0.00
2018-09-22T03:59:28.349Z,0.00
2018-09-22T04:02:10.515Z,0.00
2018-09-22T04:03:32.539Z,0.00
2018-09-22T04:04:10.400Z,0.00
2018-09-22T04:05:10.266Z,0.00
2018-09-22T04:06:10.303Z,0.00
2018-09-22T04:08:35.538Z,0.00
2018-09-22T04:11:17.509Z,0.00
2018-09-22T04:13:59.546Z,0.00
2018-09-22T04:17:10.584Z,0.00
2018-09-22T04:19:46.641Z,0.00
2018-09-22T04:20:46.436Z,0.00
2018-09-22T04:21:46.456Z,0.00
2018-09-22T04:22:46.270Z,0.00
2018-09-22T04:23:46.293Z,0.00
2018-09-22T04:24:46.113Z,0.00
2018-09-22T04:25:46.063Z,0.00
2018-09-22T04:26:46.058Z,0.00
2018-09-22T04:27:45.974Z,0.00
2018-09-22T04:28:45.802Z,0.00
2018-09-22T04:29:45.786Z,0.00
2018-09-22T04:30:45.625Z,0.00
2018-09-22T04:31:45.599Z,0.00
2018-09-22T04:32:45.469Z,0.00
2018-09-22T04:33:46.467Z,0.00
2018-09-22T04:42:21.439Z,0.00
2018-09-22T04:43:21.274Z,0.00
2018-09-22T04:44:22.270Z,0.00
2018-09-22T04:45:21.116Z,0.00
2018-09-22T04:46:21.122Z,0.00
2018-09-22T04:47:20.947Z,0.00
2018-09-22T04:50:03.054Z,0.00
2018-09-22T04:52:49.045Z,0.00
2018-09-22T04:53:49.024Z,0.00
2018-09-22T04:54:48.928Z,0.00
2018-09-22T04:55:48.823Z,0.00
2018-09-22T04:56:48.702Z,0.00
2018-09-22T04:59:30.654Z,0.00
2018-09-22T05:00:30.443Z,0.00
2018-09-22T05:01:30.368Z,0.00
2018-09-22T05:02:30.286Z,0.00
2018-09-22T05:03:30.209Z,0.00
2018-09-22T05:04:30.140Z,0.00
2018-09-22T05:05:30.163Z,0.00
2018-09-22T05:06:29.972Z,0.00
2018-09-22T05:07:29.976Z,0.00
2018-09-22T05:08:29.814Z,5.63
2018-09-22T05:09:30.176Z,5.63
2018-09-22T05:10:29.678Z,5.63
2018-09-22T05:11:29.682Z,5.63
2018-09-22T05:12:29.473Z,5.63
2018-09-22T05:13:29.398Z,5.63
2018-09-22T05:14:29.323Z,5.63
2018-09-22T05:15:29.325Z,11.25
2018-09-22T05:16:29.154Z,5.63
2018-09-22T05:18:29.001Z,11.25
2018-09-22T05:19:29.019Z,5.63
2018-09-22T05:20:28.862Z,5.63
2018-09-22T05:21:28.759Z,5.63
2018-09-22T05:22:28.675Z,5.63
2018-09-22T05:23:28.640Z,5.63
2018-09-22T05:24:28.507Z,11.25
2018-09-22T05:25:28.586Z,11.25
2018-09-22T05:26:28.347Z,11.25
2018-09-22T05:27:28.353Z,11.25
2018-09-22T05:28:28.200Z,16.88
2018-09-22T05:29:28.120Z,16.88
2018-09-22T05:30:28.050Z,16.88
2018-09-22T05:31:28.056Z,16.88
2018-09-22T05:32:27.873Z,16.88
2018-09-22T05:33:27.897Z,16.88
2018-09-22T05:34:27.746Z,22.50
2018-09-22T05:35:27.702Z,28.13
2018-09-22T05:36:27.564Z,33.75
2018-09-22T05:37:27.735Z,33.75
2018-09-22T05:38:27.473Z,39.38
2018-09-22T05:39:27.410Z,33.75
2018-09-22T05:40:27.218Z,39.38
2018-09-22T05:41:27.402Z,39.38
2018-09-22T05:42:27.096Z,39.38
2018-09-22T05:43:27.024Z,39.38
2018-09-22T05:44:26.919Z,39.38
2018-09-22T05:45:26.987Z,39.38
2018-09-22T05:46:26.819Z,39.38
2018-09-22T05:47:26.748Z,45.00
2018-09-22T05:48:26.581Z,45.00
2018-09-22T05:49:26.588Z,45.00
2018-09-22T05:50:26.414Z,50.63
2018-09-22T05:51:26.392Z,45.00
2018-09-22T05:52:26.272Z,45.00
2018-09-22T05:53:26.285Z,50.63
2018-09-22T05:54:26.081Z,56.25
2018-09-22T05:55:26.138Z,67.50
2018-09-22T05:56:25.942Z,73.13
2018-09-22T05:57:25.921Z,78.75
2018-09-22T05:58:25.760Z,78.75
2018-09-22T05:59:25.699Z,73.13
2018-09-22T06:00:25.600Z,73.13
2018-09-22T06:01:25.531Z,73.13
2018-09-22T06:02:25.461Z,73.13
2018-09-22T06:03:25.479Z,90.00
2018-09-22T06:04:25.276Z,118.13
2018-09-22T06:05:25.236Z,157.50
2018-09-22T06:06:25.118Z,163.13
2018-09-22T06:07:26.091Z,157.50
2018-09-22T06:08:24.982Z,157.50
2018-09-22T06:09:24.978Z,157.50
2018-09-22T06:10:24.801Z,157.50
2018-09-22T06:11:24.758Z,163.13
2018-09-22T06:12:24.626Z,163.13
2018-09-22T06:13:24.595Z,163.13
2018-09-22T06:14:24.467Z,180.00
2018-09-22T06:15:24.474Z,196.88
2018-09-22T06:16:24.308Z,191.25
2018-09-22T06:17:24.286Z,185.63
2018-09-22T06:18:24.201Z,208.13
2018-09-22T06:21:06.058Z,157.50
2018-09-22T06:22:06.097Z,168.75
2018-09-22T06:23:05.938Z,174.38
2018-09-22T06:24:05.914Z,180.00
2018-09-22T06:25:05.726Z,185.63
2018-09-22T06:26:05.708Z,174.38
2018-09-22T06:27:05.566Z,157.50
2018-09-22T06:28:05.551Z,157.50
2018-09-22T06:29:05.407Z,168.75
2018-09-22T06:30:05.426Z,157.50
2018-09-22T06:31:05.253Z,180.00
2018-09-22T06:32:05.236Z,180.00
2018-09-22T06:33:05.089Z,185.63
2018-09-22T06:34:05.085Z,196.88
2018-09-22T06:35:04.915Z,225.00
2018-09-22T06:36:04.952Z,241.88
2018-09-22T06:37:04.755Z,219.38
2018-09-22T06:38:04.762Z,202.50
2018-09-22T06:39:04.731Z,230.63
2018-09-22T06:40:04.576Z,275.63
2018-09-22T06:41:04.430Z,292.50
2018-09-22T06:42:04.380Z,298.13
2018-09-22T06:43:04.268Z,281.25
2018-09-22T06:44:04.334Z,286.88
2018-09-22T06:45:04.126Z,286.88
2018-09-22T06:46:04.149Z,275.63
2018-09-22T06:47:03.962Z,241.88
2018-09-22T06:48:03.910Z,230.63
2018-09-22T06:49:03.828Z,236.25
2018-09-22T06:50:03.834Z,264.38
2018-09-22T06:51:03.635Z,253.13
2018-09-22T06:52:03.621Z,270.00
2018-09-22T06:53:03.503Z,275.63
2018-09-22T06:54:03.438Z,292.50
2018-09-22T06:55:03.321Z,303.75
2018-09-22T06:56:03.245Z,303.75
2018-09-22T06:57:03.148Z,309.38
2018-09-22T06:58:03.065Z,337.50
2018-09-22T06:59:03.014Z,365.63
2018-09-22T07:00:02.923Z,376.88
2018-09-22T07:01:02.816Z,315.00
2018-09-22T07:02:02.771Z,309.38
2018-09-22T07:03:02.661Z,315.00
2018-09-22T07:04:02.683Z,337.50
2018-09-22T07:05:02.548Z,365.63
2018-09-22T07:06:02.509Z,382.50
2018-09-22T07:07:02.338Z,410.63
2018-09-22T07:09:44.584Z,472.50
2018-09-22T07:10:44.488Z,466.88
2018-09-22T07:11:44.431Z,545.63
2018-09-22T07:15:27.584Z,376.88
2018-09-22T07:16:48.458Z,371.25
2018-09-22T07:17:48.385Z,354.38
2018-09-22T07:20:09.574Z,343.13
2018-09-22T07:39:05.914Z,405.00
2018-09-22T07:40:06.868Z,483.75
2018-09-22T07:41:05.773Z,675.00
2018-09-22T07:42:05.690Z,697.50
2018-09-22T07:43:05.593Z,686.25
2018-09-22T07:44:05.529Z,573.75
2018-09-22T07:45:05.439Z,590.63
2018-09-22T07:46:05.374Z,607.50
2018-09-22T07:47:05.271Z,635.63
2018-09-22T07:48:05.206Z,658.13
2018-09-22T07:49:05.125Z,635.63
2018-09-22T07:50:05.112Z,596.25
2018-09-22T07:51:04.965Z,585.00
2018-09-22T07:52:04.876Z,590.63
2018-09-22T07:53:04.786Z,562.50
2018-09-22T07:55:47.071Z,573.75
2018-09-22T07:56:48.043Z,607.50
2018-09-22T07:57:46.921Z,630.00
2018-09-22T07:58:46.836Z,680.63
2018-09-22T07:59:46.757Z,855.00
2018-09-22T08:24:08.264Z,495.00
2018-09-22T08:25:08.199Z,478.13
2018-09-22T08:27:50.093Z,489.38
2018-09-22T08:29:10.993Z,489.38
2018-09-22T08:30:10.903Z,483.75
2018-09-22T08:30:49.861Z,483.75
2018-09-22T08:31:49.771Z,495.00
2018-09-22T08:32:50.722Z,506.25
2018-09-22T08:33:49.614Z,534.38
2018-09-22T08:34:49.536Z,540.00
2018-09-22T08:35:49.443Z,551.25
2018-09-22T08:38:31.603Z,613.13
2018-09-22T08:39:31.529Z,624.38
2018-09-22T08:40:31.424Z,669.38
2018-09-22T08:43:13.606Z,731.25
2018-09-22T08:44:13.589Z,748.13
2018-09-22T08:45:13.427Z,787.50
2018-09-22T08:47:55.582Z,748.13
2018-09-22T08:48:56.540Z,793.13
2018-09-22T08:49:55.470Z,787.50
2018-09-22T08:52:37.590Z,961.88
2018-09-22T08:53:38.541Z,950.63
2018-09-22T08:54:37.428Z,973.13
2018-09-22T09:06:53.384Z,1175.63
2018-09-22T09:07:53.272Z,1085.63
2018-09-22T09:08:54.242Z,978.75
2018-09-22T09:09:53.138Z,939.38
2018-09-22T09:20:59.198Z,1046.25
2018-09-22T09:23:41.097Z,1186.88
2018-09-22T09:24:41.059Z,1310.63
2018-09-22T09:25:40.947Z,1147.50
2018-09-22T09:28:23.115Z,1215.00
2018-09-22T09:29:23.040Z,1265.63
2018-09-22T09:30:23.032Z,1231.88
2018-09-22T09:31:22.903Z,1254.38
2018-09-22T09:32:22.832Z,1344.38
2018-09-22T09:33:22.755Z,1355.63
2018-09-22T09:34:22.681Z,1338.75
2018-09-22T09:35:22.638Z,1186.88
2018-09-22T09:36:22.513Z,1231.88
2018-09-22T09:37:22.447Z,1192.50
2018-09-22T09:38:22.364Z,1102.50
2018-09-22T09:39:22.300Z,1170.00
2018-09-22T09:40:22.239Z,1209.38
2018-09-22T09:41:22.161Z,1051.88
2018-09-22T09:42:22.093Z,1018.13
2018-09-22T09:45:04.131Z,1029.38
2018-09-22T09:46:04.041Z,877.50
2018-09-22T09:47:03.973Z,849.38
2018-09-22T09:48:03.905Z,928.13
2018-09-22T09:49:03.826Z,900.00
2018-09-22T09:50:04.760Z,860.63
2018-09-22T09:51:03.708Z,838.13
2018-09-22T09:52:03.599Z,753.75
2018-09-22T09:53:03.548Z,736.88
2018-09-22T09:54:03.452Z,838.13
2018-09-22T09:55:03.389Z,798.75
2018-09-22T09:56:03.299Z,843.75
2018-09-22T09:57:03.244Z,770.63
2018-09-22T09:58:03.157Z,804.38
2018-09-22T09:59:03.056Z,928.13
2018-09-22T10:00:02.997Z,1080.00
2018-09-22T10:01:02.936Z,973.13
2018-09-22T10:02:02.848Z,838.13
2018-09-22T10:03:02.758Z,815.63
2018-09-22T10:05:44.615Z,1215.00
2018-09-22T10:06:44.592Z,1068.75
2018-09-22T10:07:44.469Z,984.38
2018-09-22T10:08:44.400Z,1096.88
2018-09-22T10:09:44.317Z,1136.25
2018-09-22T10:10:44.259Z,1321.88
2018-09-22T10:11:44.206Z,1254.38
2018-09-22T10:12:44.091Z,1226.25
2018-09-22T10:13:44.014Z,1226.25
2018-09-22T10:16:26.139Z,900.00
2018-09-22T10:19:08.126Z,945.00
2018-09-22T10:20:08.106Z,978.75
2018-09-22T10:21:07.989Z,1068.75
2018-09-22T10:22:07.930Z,1293.75
2018-09-22T10:23:07.862Z,1451.25
2018-09-22T10:24:07.760Z,1518.75
2018-09-22T10:25:07.670Z,916.88
2018-09-22T10:26:07.705Z,691.88
2018-09-22T10:27:07.554Z,770.63
2018-09-22T10:28:07.487Z,1254.38
2018-09-22T10:29:07.391Z,1608.75
2018-09-22T10:30:07.286Z,2092.50
2018-09-22T10:31:07.220Z,1749.38
2018-09-22T10:32:07.177Z,1935.00
2018-09-22T10:33:07.048Z,2041.88
2018-09-22T10:35:49.166Z,1271.25
2018-09-22T10:36:49.079Z,1406.25
2018-09-22T10:37:49.006Z,1226.25
2018-09-22T10:38:49.937Z,1063.13
2018-09-22T10:39:48.893Z,1035.00
2018-09-22T10:40:48.772Z,961.88
2018-09-22T10:41:48.678Z,995.63
2018-09-22T10:42:49.685Z,1006.88
2018-09-22T10:43:48.528Z,995.63
2018-09-22T10:44:48.454Z,990.00
2018-09-22T10:45:48.379Z,1018.13
2018-09-22T10:46:48.305Z,905.63
2018-09-22T10:47:48.270Z,776.25
2018-09-22T10:48:48.191Z,810.00
2018-09-22T10:49:48.084Z,787.50
2018-09-22T10:50:48.006Z,849.38
2018-09-22T10:51:47.923Z,821.25
2018-09-22T10:54:30.165Z,871.88
2018-09-22T10:55:30.066Z,821.25
2018-09-22T10:56:30.005Z,776.25
2018-09-22T10:57:29.974Z,748.13
2018-09-22T10:58:29.849Z,742.50
2018-09-22T10:59:29.773Z,742.50
2018-09-22T11:00:29.676Z,686.25
2018-09-22T11:01:29.601Z,618.75
2018-09-22T11:02:29.558Z,562.50
2018-09-22T11:03:29.553Z,540.00
2018-09-22T11:04:29.391Z,573.75
2018-09-22T11:05:29.307Z,596.25
2018-09-22T11:06:29.214Z,630.00
2018-09-22T11:07:29.133Z,607.50
2018-09-22T11:08:29.075Z,736.88
2018-09-22T11:09:29.007Z,855.00
2018-09-22T11:10:28.906Z,675.00
2018-09-22T11:11:28.827Z,680.63
2018-09-22T11:12:28.746Z,635.63
2018-09-22T11:13:28.701Z,573.75
2018-09-22T11:14:28.590Z,506.25
2018-09-22T11:15:28.533Z,483.75
2018-09-22T11:16:28.437Z,540.00
2018-09-22T11:17:28.356Z,551.25
2018-09-22T11:18:28.282Z,545.63
2018-09-22T11:19:28.232Z,528.75
2018-09-22T11:20:28.140Z,579.38
2018-09-22T11:21:28.062Z,624.38
2018-09-22T11:22:27.962Z,613.13
2018-09-22T11:23:27.896Z,540.00
2018-09-22T11:24:27.965Z,585.00
2018-09-22T11:27:09.658Z,759.38
2018-09-22T11:28:09.571Z,804.38
2018-09-22T11:29:09.527Z,714.38
2018-09-22T11:30:09.463Z,815.63
2018-09-22T11:31:09.327Z,838.13
2018-09-22T11:32:09.282Z,916.88
2018-09-22T11:33:09.197Z,911.25
2018-09-22T11:35:51.158Z,1265.63
2018-09-22T11:36:51.124Z,1119.38
2018-09-22T11:37:51.003Z,1260.00
2018-09-22T11:38:50.971Z,1023.75
2018-09-22T11:39:50.871Z,916.88
2018-09-22T11:40:50.765Z,753.75
2018-09-22T11:41:50.685Z,753.75
2018-09-22T11:42:50.635Z,765.00
2018-09-22T11:43:50.525Z,759.38
2018-09-22T11:44:50.467Z,781.88
2018-09-22T11:45:50.379Z,821.25
2018-09-22T11:46:51.314Z,810.00
2018-09-22T11:47:50.219Z,793.13
2018-09-22T11:48:50.141Z,770.63
2018-09-22T11:49:50.069Z,697.50
2018-09-22T11:52:32.194Z,658.13
2018-09-22T11:55:14.343Z,534.38
2018-09-22T11:56:14.093Z,517.50
2018-09-22T11:57:14.034Z,528.75
2018-09-22T11:58:13.925Z,495.00
2018-09-22T11:59:13.840Z,478.13
2018-09-22T12:00:13.808Z,433.13
2018-09-22T12:01:13.698Z,444.38
2018-09-22T12:03:55.683Z,489.38
2018-09-22T12:04:55.667Z,495.00
2018-09-22T12:05:55.548Z,489.38
2018-09-22T12:08:37.855Z,455.63
2018-09-22T12:09:38.308Z,427.50
2018-09-22T12:10:38.299Z,393.75
2018-09-22T12:13:19.662Z,348.75
2018-09-22T12:14:19.605Z,292.50
2018-09-22T12:15:19.539Z,281.25
2018-09-22T12:16:19.445Z,281.25
2018-09-22T12:17:19.349Z,270.00
2018-09-22T12:18:19.283Z,253.13
2018-09-22T12:19:19.222Z,253.13
2018-09-22T12:20:20.136Z,264.38
2018-09-22T12:21:19.091Z,258.75
2018-09-22T12:24:01.175Z,241.88
2018-09-22T12:25:01.124Z,230.63
2018-09-22T12:26:01.061Z,236.25
2018-09-22T12:27:00.944Z,258.75
2018-09-22T12:28:00.849Z,275.63
2018-09-22T12:29:00.790Z,275.63
2018-09-22T12:30:00.691Z,281.25
2018-09-22T12:31:00.633Z,281.25
2018-09-22T12:32:00.559Z,286.88
2018-09-22T12:33:00.503Z,309.38
2018-09-22T12:34:00.371Z,348.75
2018-09-22T12:35:00.332Z,337.50
2018-09-22T12:36:00.242Z,320.63
2018-09-22T12:37:00.143Z,371.25
2018-09-22T12:38:00.056Z,388.13
2018-09-22T12:40:42.201Z,343.13
2018-09-22T12:43:24.177Z,286.88
2018-09-22T12:44:24.095Z,309.38
2018-09-22T12:45:24.019Z,354.38
2018-09-22T12:46:24.956Z,343.13
2018-09-22T12:47:23.879Z,348.75
2018-09-22T12:48:23.780Z,354.38
2018-09-22T12:49:23.718Z,365.63
2018-09-22T12:50:23.631Z,371.25
2018-09-22T12:51:23.569Z,331.88
2018-09-22T12:54:05.706Z,348.75
2018-09-22T12:55:05.601Z,371.25
2018-09-22T12:56:05.552Z,354.38
2018-09-22T12:57:05.452Z,360.00
2018-09-22T12:58:05.369Z,393.75
2018-09-22T12:59:05.278Z,433.13
2018-09-22T13:00:05.198Z,483.75
2018-09-22T13:01:05.170Z,466.88
2018-09-22T13:02:05.053Z,450.00
2018-09-22T13:03:04.967Z,410.63
2018-09-22T13:04:04.895Z,371.25
2018-09-22T13:05:04.806Z,360.00
2018-09-22T13:06:04.733Z,360.00
2018-09-22T13:07:05.684Z,388.13
2018-09-22T13:08:04.623Z,393.75
2018-09-22T13:09:04.488Z,382.50
2018-09-22T13:10:04.400Z,371.25
2018-09-22T13:12:46.714Z,360.00
2018-09-22T13:13:46.614Z,348.75
2018-09-22T13:14:46.517Z,348.75
2018-09-22T13:15:46.452Z,315.00
2018-09-22T13:16:46.397Z,343.13
2018-09-22T13:17:46.299Z,326.25
2018-09-22T13:18:46.240Z,303.75
2018-09-22T13:19:46.142Z,298.13
2018-09-22T13:20:46.047Z,281.25
2018-09-22T13:21:48.017Z,281.25
2018-09-22T13:22:45.897Z,236.25
2018-09-22T13:23:45.824Z,163.13
2018-09-22T13:24:45.753Z,140.63
2018-09-22T13:25:45.708Z,146.25
2018-09-22T13:26:45.643Z,118.13
2018-09-22T13:27:46.518Z,123.75
2018-09-22T13:28:45.418Z,168.75
2018-09-22T13:29:45.332Z,208.13
2018-09-22T13:30:45.248Z,230.63
2018-09-22T13:33:27.199Z,258.75
2018-09-22T13:36:09.187Z,236.25
2018-09-22T13:37:09.183Z,247.50
2018-09-22T13:38:09.059Z,241.88
2018-09-22T13:39:08.963Z,236.25
2018-09-22T13:40:08.868Z,236.25
2018-09-22T13:42:50.719Z,241.88
2018-09-22T13:45:32.716Z,241.88
2018-09-22T13:48:14.721Z,202.50
2018-09-22T13:49:14.640Z,180.00
2018-09-22T13:50:14.545Z,163.13
2018-09-22T13:52:56.715Z,129.38
2018-09-22T13:53:56.646Z,129.38
2018-09-22T13:54:56.566Z,118.13
2018-09-22T13:57:38.716Z,123.75
2018-09-22T13:58:38.648Z,118.13
2018-09-22T13:59:38.549Z,123.75
2018-09-22T14:00:38.469Z,118.13
2018-09-22T14:01:38.399Z,118.13
2018-09-22T14:02:38.324Z,118.13
2018-09-22T14:03:38.315Z,123.75
2018-09-22T14:06:20.213Z,123.75
2018-09-22T14:09:02.238Z,140.63
2018-09-22T14:10:02.156Z,140.63
2018-09-22T14:11:02.043Z,140.63
2018-09-22T14:12:01.968Z,140.63
2018-09-22T14:13:01.875Z,135.00
2018-09-22T14:14:01.828Z,135.00
2018-09-22T14:15:01.725Z,140.63
2018-09-22T14:17:43.718Z,191.25
2018-09-22T14:18:43.658Z,208.13
2018-09-22T14:19:43.570Z,225.00
2018-09-22T14:22:25.701Z,208.13
2018-09-22T14:23:25.671Z,213.75
2018-09-22T14:24:25.577Z,213.75
2018-09-22T14:25:25.474Z,213.75
2018-09-22T14:26:25.384Z,219.38
2018-09-22T14:27:25.305Z,236.25
2018-09-22T14:28:25.231Z,230.63
2018-09-22T14:29:25.175Z,196.88
2018-09-22T14:30:25.062Z,191.25
2018-09-22T14:31:25.011Z,196.88
2018-09-22T14:32:24.898Z,213.75
2018-09-22T14:33:24.827Z,225.00
2018-09-22T14:34:24.767Z,230.63
2018-09-22T14:35:24.710Z,225.00
2018-09-22T14:36:24.588Z,219.38
2018-09-22T14:37:24.516Z,236.25
2018-09-22T14:38:24.421Z,292.50
2018-09-22T14:39:24.456Z,303.75
2018-09-22T14:40:24.281Z,258.75
2018-09-22T14:41:24.203Z,230.63
2018-09-22T14:42:24.116Z,213.75
2018-09-22T14:45:06.230Z,315.00
2018-09-22T14:46:06.141Z,298.13
2018-09-22T14:47:06.055Z,292.50
2018-09-22T14:48:05.998Z,264.38
2018-09-22T14:49:05.907Z,241.88
2018-09-22T14:50:05.854Z,219.38
2018-09-22T14:51:05.733Z,208.13
2018-09-22T14:53:47.715Z,174.38
2018-09-22T14:54:48.685Z,180.00
2018-09-22T14:55:47.545Z,180.00
2018-09-22T14:56:47.469Z,180.00
2018-09-22T14:57:47.396Z,163.13
2018-09-22T14:58:47.331Z,163.13
2018-09-22T14:59:47.253Z,146.25
2018-09-22T15:00:47.184Z,140.63
2018-09-22T15:01:47.078Z,140.63
2018-09-22T15:04:29.227Z,135.00
2018-09-22T15:05:30.187Z,123.75
2018-09-22T15:06:29.063Z,129.38
2018-09-22T15:07:28.982Z,140.63
2018-09-22T15:08:28.893Z,146.25
2018-09-22T15:09:28.836Z,146.25
2018-09-22T15:10:28.755Z,140.63
2018-09-22T15:11:28.665Z,140.63
2018-09-22T15:12:28.571Z,140.63
2018-09-22T15:15:10.731Z,157.50
2018-09-22T15:16:11.685Z,140.63
2018-09-22T15:17:10.574Z,123.75
2018-09-22T15:19:52.828Z,140.63
2018-09-22T15:22:34.766Z,112.50
2018-09-22T15:23:34.668Z,101.25
2018-09-22T15:24:34.554Z,101.25
2018-09-22T15:25:34.493Z,118.13
2018-09-22T15:26:34.398Z,118.13
2018-09-22T15:27:35.494Z,118.13
2018-09-22T15:28:34.242Z,112.50
2018-09-22T15:31:16.284Z,123.75
2018-09-22T15:32:16.176Z,135.00
2018-09-22T15:33:16.071Z,151.88
2018-09-22T15:34:16.111Z,180.00
2018-09-22T15:35:15.915Z,191.25
2018-09-22T15:36:15.837Z,202.50
2018-09-22T15:37:15.861Z,191.25
2018-09-22T15:38:15.664Z,168.75
2018-09-22T15:39:15.587Z,140.63
2018-09-22T15:41:57.722Z,129.38
2018-09-22T15:42:58.667Z,140.63
2018-09-22T15:43:57.568Z,151.88
2018-09-22T15:44:57.496Z,168.75
2018-09-22T15:45:57.424Z,174.38
2018-09-22T15:46:57.344Z,168.75
2018-09-22T15:47:57.375Z,168.75
2018-09-22T15:50:39.233Z,151.88
2018-09-22T15:51:39.162Z,146.25
2018-09-22T15:52:39.084Z,135.00
2018-09-22T15:53:39.020Z,112.50
2018-09-22T15:54:38.909Z,101.25
2018-09-22T15:55:38.834Z,95.63
2018-09-22T15:56:38.741Z,95.63
2018-09-22T15:57:38.700Z,90.00
2018-09-22T15:58:38.593Z,84.38